sensor_id;sensor_type;location;lat;lon;timestamp;P1;durP1;ratioP1;P2;durP2;ratioP2
6113;SDS011;3087;48.392;10.836;2024-01-16T00:01:34;5.03;;;3.00;;
6113;SDS011;3087;48.392;10.836;2024-01-16T00:03:59;5.20;;;3.67;;
6113;SDS011;3087;48.392;10.836;2024-01-16T00:06:25;6.10;;;3.10;;
6113;SDS011;3087;48.392;10.836;2024-01-16T00:08:50;3.23;;;2.93;;
6113;SDS011;3087;48.392;10.836;2024-01-16T00:11:16;3.67;;;3.37;;
6113;SDS011;3087;48.392;10.836;2024-01-16T00:13:41;4.47;;;3.40;;
6113;SDS011;3087;48.392;10.836;2024-01-16T00:16:07;3.97;;;3.07;;
6113;SDS011;3087;48.392;10.836;2024-01-16T00:18:33;3.73;;;2.93;;
6113;SDS011;3087;48.392;10.836;2024-01-16T00:21:03;6.33;;;3.80;;
6113;SDS011;3087;48.392;10.836;2024-01-16T00:23:28;4.47;;;3.10;;
6113;SDS011;3087;48.392;10.836;2024-01-16T00:25:56;4.80;;;3.63;;
6113;SDS011;3087;48.392;10.836;2024-01-16T00:28:22;3.50;;;3.20;;
6113;SDS011;3087;48.392;10.836;2024-01-16T00:30:48;4.07;;;3.17;;
6113;SDS011;3087;48.392;10.836;2024-01-16T00:33:14;3.47;;;2.90;;
6113;SDS011;3087;48.392;10.836;2024-01-16T00:35:39;3.93;;;2.93;;
6113;SDS011;3087;48.392;10.836;2024-01-16T00:38:05;4.40;;;3.00;;
6113;SDS011;3087;48.392;10.836;2024-01-16T00:40:30;3.57;;;2.70;;
6113;SDS011;3087;48.392;10.836;2024-01-16T00:42:56;5.03;;;3.17;;
6113;SDS011;3087;48.392;10.836;2024-01-16T00:45:22;6.70;;;3.20;;
6113;SDS011;3087;48.392;10.836;2024-01-16T00:47:47;3.43;;;2.60;;
6113;SDS011;3087;48.392;10.836;2024-01-16T00:50:13;4.60;;;3.20;;
6113;SDS011;3087;48.392;10.836;2024-01-16T00:52:38;4.83;;;2.53;;
6113;SDS011;3087;48.392;10.836;2024-01-16T00:55:04;4.73;;;3.23;;
6113;SDS011;3087;48.392;10.836;2024-01-16T00:57:30;5.57;;;3.27;;
6113;SDS011;3087;48.392;10.836;2024-01-16T00:59:56;5.13;;;3.13;;
6113;SDS011;3087;48.392;10.836;2024-01-16T01:02:21;4.13;;;3.10;;
6113;SDS011;3087;48.392;10.836;2024-01-16T01:04:47;3.87;;;3.00;;
6113;SDS011;3087;48.392;10.836;2024-01-16T01:07:13;3.17;;;2.73;;
6113;SDS011;3087;48.392;10.836;2024-01-16T01:09:39;5.37;;;2.87;;
6113;SDS011;3087;48.392;10.836;2024-01-16T01:12:05;4.43;;;2.80;;
6113;SDS011;3087;48.392;10.836;2024-01-16T01:14:31;3.53;;;2.80;;
6113;SDS011;3087;48.392;10.836;2024-01-16T01:16:56;4.47;;;3.17;;
6113;SDS011;3087;48.392;10.836;2024-01-16T01:19:22;4.63;;;2.50;;
6113;SDS011;3087;48.392;10.836;2024-01-16T01:21:48;4.33;;;2.83;;
6113;SDS011;3087;48.392;10.836;2024-01-16T01:24:14;3.10;;;2.60;;
6113;SDS011;3087;48.392;10.836;2024-01-16T01:26:42;4.10;;;2.70;;
6113;SDS011;3087;48.392;10.836;2024-01-16T01:29:14;5.23;;;3.40;;
6113;SDS011;3087;48.392;10.836;2024-01-16T01:31:39;3.77;;;2.50;;
6113;SDS011;3087;48.392;10.836;2024-01-16T01:34:05;4.23;;;3.20;;
6113;SDS011;3087;48.392;10.836;2024-01-16T01:36:30;3.33;;;2.83;;
6113;SDS011;3087;48.392;10.836;2024-01-16T01:38:56;3.77;;;2.90;;
6113;SDS011;3087;48.392;10.836;2024-01-16T01:41:22;3.50;;;2.70;;
6113;SDS011;3087;48.392;10.836;2024-01-16T01:43:47;4.53;;;2.73;;
6113;SDS011;3087;48.392;10.836;2024-01-16T01:46:14;5.90;;;3.33;;
6113;SDS011;3087;48.392;10.836;2024-01-16T01:48:42;3.57;;;2.50;;
6113;SDS011;3087;48.392;10.836;2024-01-16T01:51:12;3.60;;;3.30;;
6113;SDS011;3087;48.392;10.836;2024-01-16T01:53:39;4.73;;;3.07;;
6113;SDS011;3087;48.392;10.836;2024-01-16T01:56:14;4.43;;;2.90;;
6113;SDS011;3087;48.392;10.836;2024-01-16T01:58:41;3.60;;;3.03;;
6113;SDS011;3087;48.392;10.836;2024-01-16T02:01:09;3.80;;;3.13;;
6113;SDS011;3087;48.392;10.836;2024-01-16T02:03:36;5.80;;;3.33;;
6113;SDS011;3087;48.392;10.836;2024-01-16T02:06:06;4.17;;;3.77;;
6113;SDS011;3087;48.392;10.836;2024-01-16T02:08:32;5.87;;;2.90;;
6113;SDS011;3087;48.392;10.836;2024-01-16T02:11:10;3.57;;;3.23;;
6113;SDS011;3087;48.392;10.836;2024-01-16T02:13:36;3.90;;;3.10;;
6113;SDS011;3087;48.392;10.836;2024-01-16T02:16:02;3.53;;;3.07;;
6113;SDS011;3087;48.392;10.836;2024-01-16T02:18:28;3.47;;;3.10;;
6113;SDS011;3087;48.392;10.836;2024-01-16T02:20:55;5.57;;;3.40;;
6113;SDS011;3087;48.392;10.836;2024-01-16T02:23:36;4.53;;;3.20;;
6113;SDS011;3087;48.392;10.836;2024-01-16T02:26:12;5.50;;;3.30;;
6113;SDS011;3087;48.392;10.836;2024-01-16T02:28:42;4.10;;;3.23;;
6113;SDS011;3087;48.392;10.836;2024-01-16T02:31:08;5.00;;;3.73;;
6113;SDS011;3087;48.392;10.836;2024-01-16T02:33:33;4.50;;;3.20;;
6113;SDS011;3087;48.392;10.836;2024-01-16T02:35:59;3.83;;;3.00;;
6113;SDS011;3087;48.392;10.836;2024-01-16T02:41:20;4.80;;;3.47;;
6113;SDS011;3087;48.392;10.836;2024-01-16T02:43:46;3.80;;;3.03;;
6113;SDS011;3087;48.392;10.836;2024-01-16T02:46:11;4.33;;;3.50;;
6113;SDS011;3087;48.392;10.836;2024-01-16T02:48:38;4.83;;;3.33;;
6113;SDS011;3087;48.392;10.836;2024-01-16T02:51:04;4.07;;;3.67;;
6113;SDS011;3087;48.392;10.836;2024-01-16T02:53:30;6.80;;;3.57;;
6113;SDS011;3087;48.392;10.836;2024-01-16T02:55:56;5.60;;;3.87;;
6113;SDS011;3087;48.392;10.836;2024-01-16T02:58:23;6.67;;;3.80;;
6113;SDS011;3087;48.392;10.836;2024-01-16T03:00:50;4.63;;;3.50;;
6113;SDS011;3087;48.392;10.836;2024-01-16T03:03:16;7.17;;;3.67;;
6113;SDS011;3087;48.392;10.836;2024-01-16T03:05:42;5.13;;;3.53;;
6113;SDS011;3087;48.392;10.836;2024-01-16T03:08:07;4.90;;;3.33;;
6113;SDS011;3087;48.392;10.836;2024-01-16T03:10:33;4.93;;;3.57;;
6113;SDS011;3087;48.392;10.836;2024-01-16T03:12:58;3.37;;;3.03;;
6113;SDS011;3087;48.392;10.836;2024-01-16T03:15:24;5.00;;;3.50;;
6113;SDS011;3087;48.392;10.836;2024-01-16T03:17:50;5.97;;;3.67;;
6113;SDS011;3087;48.392;10.836;2024-01-16T03:20:16;4.37;;;3.40;;
6113;SDS011;3087;48.392;10.836;2024-01-16T03:22:43;6.17;;;3.80;;
6113;SDS011;3087;48.392;10.836;2024-01-16T03:25:09;6.17;;;3.53;;
6113;SDS011;3087;48.392;10.836;2024-01-16T03:27:38;9.17;;;3.77;;
6113;SDS011;3087;48.392;10.836;2024-01-16T03:30:04;4.83;;;3.83;;
6113;SDS011;3087;48.392;10.836;2024-01-16T03:32:31;5.53;;;3.43;;
6113;SDS011;3087;48.392;10.836;2024-01-16T03:34:57;5.83;;;3.77;;
6113;SDS011;3087;48.392;10.836;2024-01-16T03:37:22;5.80;;;3.70;;
6113;SDS011;3087;48.392;10.836;2024-01-16T03:39:48;3.73;;;3.37;;
6113;SDS011;3087;48.392;10.836;2024-01-16T03:42:15;4.47;;;3.17;;
6113;SDS011;3087;48.392;10.836;2024-01-16T03:44:40;5.03;;;3.83;;
6113;SDS011;3087;48.392;10.836;2024-01-16T03:47:06;5.23;;;3.57;;
6113;SDS011;3087;48.392;10.836;2024-01-16T03:49:32;9.67;;;4.63;;
6113;SDS011;3087;48.392;10.836;2024-01-16T03:51:58;4.90;;;3.43;;
6113;SDS011;3087;48.392;10.836;2024-01-16T03:54:27;5.63;;;4.20;;
6113;SDS011;3087;48.392;10.836;2024-01-16T03:56:58;5.93;;;3.93;;
6113;SDS011;3087;48.392;10.836;2024-01-16T03:59:24;5.17;;;3.90;;
6113;SDS011;3087;48.392;10.836;2024-01-16T04:01:49;5.10;;;3.50;;
6113;SDS011;3087;48.392;10.836;2024-01-16T04:04:15;7.50;;;3.90;;
6113;SDS011;3087;48.392;10.836;2024-01-16T04:06:41;4.67;;;3.20;;
6113;SDS011;3087;48.392;10.836;2024-01-16T04:09:07;4.57;;;3.47;;
6113;SDS011;3087;48.392;10.836;2024-01-16T04:11:34;5.43;;;4.10;;
6113;SDS011;3087;48.392;10.836;2024-01-16T04:14:00;7.40;;;4.17;;
6113;SDS011;3087;48.392;10.836;2024-01-16T04:16:25;5.50;;;3.80;;
6113;SDS011;3087;48.392;10.836;2024-01-16T04:18:51;4.73;;;3.47;;
6113;SDS011;3087;48.392;10.836;2024-01-16T04:21:17;5.80;;;3.23;;
6113;SDS011;3087;48.392;10.836;2024-01-16T04:23:43;4.10;;;3.70;;
6113;SDS011;3087;48.392;10.836;2024-01-16T04:26:08;4.73;;;3.23;;
6113;SDS011;3087;48.392;10.836;2024-01-16T04:28:34;5.57;;;3.83;;
6113;SDS011;3087;48.392;10.836;2024-01-16T04:31:02;5.47;;;3.80;;
6113;SDS011;3087;48.392;10.836;2024-01-16T04:33:28;5.40;;;4.10;;
6113;SDS011;3087;48.392;10.836;2024-01-16T04:35:53;5.20;;;3.93;;
6113;SDS011;3087;48.392;10.836;2024-01-16T04:38:19;5.13;;;3.70;;
6113;SDS011;3087;48.392;10.836;2024-01-16T04:40:45;6.60;;;3.60;;
6113;SDS011;3087;48.392;10.836;2024-01-16T04:43:13;4.07;;;3.60;;
6113;SDS011;3087;48.392;10.836;2024-01-16T04:45:39;5.57;;;4.20;;
6113;SDS011;3087;48.392;10.836;2024-01-16T04:48:04;4.37;;;3.97;;
6113;SDS011;3087;48.392;10.836;2024-01-16T04:50:30;5.20;;;4.30;;
6113;SDS011;3087;48.392;10.836;2024-01-16T04:52:59;4.23;;;3.50;;
6113;SDS011;3087;48.392;10.836;2024-01-16T04:55:25;5.03;;;4.10;;
6113;SDS011;3087;48.392;10.836;2024-01-16T04:57:54;4.87;;;4.10;;
6113;SDS011;3087;48.392;10.836;2024-01-16T05:00:21;5.47;;;3.70;;
6113;SDS011;3087;48.392;10.836;2024-01-16T05:02:47;7.07;;;4.10;;
6113;SDS011;3087;48.392;10.836;2024-01-16T05:05:12;5.87;;;4.20;;
6113;SDS011;3087;48.392;10.836;2024-01-16T05:07:39;5.97;;;4.00;;
6113;SDS011;3087;48.392;10.836;2024-01-16T05:10:05;4.10;;;3.37;;
6113;SDS011;3087;48.392;10.836;2024-01-16T05:12:32;5.50;;;3.40;;
6113;SDS011;3087;48.392;10.836;2024-01-16T05:14:57;4.63;;;3.57;;
6113;SDS011;3087;48.392;10.836;2024-01-16T05:17:23;6.40;;;3.40;;
6113;SDS011;3087;48.392;10.836;2024-01-16T05:19:49;6.27;;;3.17;;
6113;SDS011;3087;48.392;10.836;2024-01-16T05:22:14;4.20;;;3.50;;
6113;SDS011;3087;48.392;10.836;2024-01-16T05:24:40;9.97;;;4.93;;
6113;SDS011;3087;48.392;10.836;2024-01-16T05:27:06;10.00;;;5.17;;
6113;SDS011;3087;48.392;10.836;2024-01-16T05:29:32;7.60;;;5.37;;
6113;SDS011;3087;48.392;10.836;2024-01-16T05:31:57;7.50;;;4.67;;
6113;SDS011;3087;48.392;10.836;2024-01-16T05:34:23;6.93;;;4.30;;
6113;SDS011;3087;48.392;10.836;2024-01-16T05:36:49;5.47;;;3.90;;
6113;SDS011;3087;48.392;10.836;2024-01-16T05:39:15;6.70;;;3.87;;
6113;SDS011;3087;48.392;10.836;2024-01-16T05:41:42;5.47;;;3.77;;
6113;SDS011;3087;48.392;10.836;2024-01-16T05:44:07;6.73;;;4.00;;
6113;SDS011;3087;48.392;10.836;2024-01-16T05:46:33;7.07;;;3.77;;
6113;SDS011;3087;48.392;10.836;2024-01-16T05:48:59;5.17;;;3.27;;
6113;SDS011;3087;48.392;10.836;2024-01-16T05:51:26;5.77;;;4.00;;
6113;SDS011;3087;48.392;10.836;2024-01-16T05:53:52;6.80;;;3.53;;
6113;SDS011;3087;48.392;10.836;2024-01-16T05:56:18;5.20;;;3.93;;
6113;SDS011;3087;48.392;10.836;2024-01-16T05:58:43;4.77;;;3.67;;
6113;SDS011;3087;48.392;10.836;2024-01-16T06:01:09;5.83;;;4.10;;
6113;SDS011;3087;48.392;10.836;2024-01-16T06:03:38;7.00;;;4.37;;
6113;SDS011;3087;48.392;10.836;2024-01-16T06:06:04;5.63;;;3.40;;
6113;SDS011;3087;48.392;10.836;2024-01-16T06:08:30;4.90;;;4.20;;
6113;SDS011;3087;48.392;10.836;2024-01-16T06:10:56;5.80;;;4.37;;
6113;SDS011;3087;48.392;10.836;2024-01-16T06:13:21;5.80;;;4.30;;
6113;SDS011;3087;48.392;10.836;2024-01-16T06:15:47;5.07;;;3.83;;
6113;SDS011;3087;48.392;10.836;2024-01-16T06:18:13;5.87;;;3.67;;
6113;SDS011;3087;48.392;10.836;2024-01-16T06:20:38;6.10;;;4.07;;
6113;SDS011;3087;48.392;10.836;2024-01-16T06:23:04;6.57;;;4.00;;
6113;SDS011;3087;48.392;10.836;2024-01-16T06:25:29;6.03;;;3.63;;
6113;SDS011;3087;48.392;10.836;2024-01-16T06:27:55;4.80;;;4.23;;
6113;SDS011;3087;48.392;10.836;2024-01-16T06:30:21;7.53;;;3.93;;
6113;SDS011;3087;48.392;10.836;2024-01-16T06:32:48;4.40;;;4.00;;
6113;SDS011;3087;48.392;10.836;2024-01-16T06:35:14;6.37;;;4.20;;
6113;SDS011;3087;48.392;10.836;2024-01-16T06:37:40;6.40;;;4.10;;
6113;SDS011;3087;48.392;10.836;2024-01-16T06:40:06;7.17;;;4.30;;
6113;SDS011;3087;48.392;10.836;2024-01-16T06:42:32;6.50;;;4.40;;
6113;SDS011;3087;48.392;10.836;2024-01-16T06:44:58;6.97;;;4.40;;
6113;SDS011;3087;48.392;10.836;2024-01-16T06:47:24;7.27;;;4.87;;
6113;SDS011;3087;48.392;10.836;2024-01-16T06:49:49;6.67;;;4.60;;
6113;SDS011;3087;48.392;10.836;2024-01-16T06:52:15;8.60;;;4.73;;
6113;SDS011;3087;48.392;10.836;2024-01-16T06:54:41;7.70;;;5.13;;
6113;SDS011;3087;48.392;10.836;2024-01-16T06:57:06;12.23;;;5.10;;
6113;SDS011;3087;48.392;10.836;2024-01-16T06:59:32;7.27;;;4.57;;
6113;SDS011;3087;48.392;10.836;2024-01-16T07:01:57;9.07;;;8.13;;
6113;SDS011;3087;48.392;10.836;2024-01-16T07:04:24;5.87;;;4.20;;
6113;SDS011;3087;48.392;10.836;2024-01-16T07:06:49;7.33;;;4.10;;
6113;SDS011;3087;48.392;10.836;2024-01-16T07:09:18;6.43;;;4.00;;
6113;SDS011;3087;48.392;10.836;2024-01-16T07:11:45;5.53;;;4.53;;
6113;SDS011;3087;48.392;10.836;2024-01-16T07:14:11;4.80;;;3.70;;
6113;SDS011;3087;48.392;10.836;2024-01-16T07:16:37;5.33;;;4.20;;
6113;SDS011;3087;48.392;10.836;2024-01-16T07:19:03;7.63;;;4.20;;
6113;SDS011;3087;48.392;10.836;2024-01-16T07:21:29;9.93;;;5.10;;
6113;SDS011;3087;48.392;10.836;2024-01-16T07:23:54;6.40;;;5.00;;
6113;SDS011;3087;48.392;10.836;2024-01-16T07:26:20;5.97;;;4.43;;
6113;SDS011;3087;48.392;10.836;2024-01-16T07:28:47;6.50;;;4.67;;
6113;SDS011;3087;48.392;10.836;2024-01-16T07:31:13;8.87;;;5.20;;
6113;SDS011;3087;48.392;10.836;2024-01-16T07:33:39;7.43;;;5.00;;
6113;SDS011;3087;48.392;10.836;2024-01-16T07:36:07;8.27;;;5.53;;
6113;SDS011;3087;48.392;10.836;2024-01-16T07:38:35;7.53;;;5.43;;
6113;SDS011;3087;48.392;10.836;2024-01-16T07:41:03;7.37;;;5.87;;
6113;SDS011;3087;48.392;10.836;2024-01-16T07:43:30;6.30;;;4.80;;
6113;SDS011;3087;48.392;10.836;2024-01-16T07:45:56;7.17;;;5.10;;
6113;SDS011;3087;48.392;10.836;2024-01-16T07:48:22;6.33;;;4.40;;
6113;SDS011;3087;48.392;10.836;2024-01-16T07:50:48;7.37;;;5.03;;
6113;SDS011;3087;48.392;10.836;2024-01-16T07:53:14;9.63;;;5.03;;
6113;SDS011;3087;48.392;10.836;2024-01-16T07:55:40;8.40;;;5.13;;
6113;SDS011;3087;48.392;10.836;2024-01-16T07:58:11;5.90;;;4.27;;
6113;SDS011;3087;48.392;10.836;2024-01-16T08:00:38;7.03;;;4.87;;
6113;SDS011;3087;48.392;10.836;2024-01-16T08:03:06;5.57;;;4.40;;
6113;SDS011;3087;48.392;10.836;2024-01-16T08:05:33;8.93;;;4.60;;
6113;SDS011;3087;48.392;10.836;2024-01-16T08:07:58;5.73;;;4.50;;
6113;SDS011;3087;48.392;10.836;2024-01-16T08:10:25;5.63;;;4.60;;
6113;SDS011;3087;48.392;10.836;2024-01-16T08:12:51;8.83;;;4.90;;
6113;SDS011;3087;48.392;10.836;2024-01-16T08:15:16;5.87;;;4.70;;
6113;SDS011;3087;48.392;10.836;2024-01-16T08:17:42;5.10;;;3.87;;
6113;SDS011;3087;48.392;10.836;2024-01-16T08:20:08;6.70;;;4.17;;
6113;SDS011;3087;48.392;10.836;2024-01-16T08:22:35;7.03;;;4.87;;
6113;SDS011;3087;48.392;10.836;2024-01-16T08:25:01;7.40;;;4.90;;
6113;SDS011;3087;48.392;10.836;2024-01-16T08:27:29;6.30;;;4.87;;
6113;SDS011;3087;48.392;10.836;2024-01-16T08:29:55;7.27;;;4.47;;
6113;SDS011;3087;48.392;10.836;2024-01-16T08:32:21;5.50;;;4.50;;
6113;SDS011;3087;48.392;10.836;2024-01-16T08:34:46;8.30;;;5.40;;
6113;SDS011;3087;48.392;10.836;2024-01-16T08:37:12;6.70;;;4.77;;
6113;SDS011;3087;48.392;10.836;2024-01-16T08:39:37;7.63;;;5.00;;
6113;SDS011;3087;48.392;10.836;2024-01-16T08:42:03;7.73;;;4.93;;
6113;SDS011;3087;48.392;10.836;2024-01-16T08:44:29;8.13;;;5.23;;
6113;SDS011;3087;48.392;10.836;2024-01-16T08:46:55;6.27;;;4.83;;
6113;SDS011;3087;48.392;10.836;2024-01-16T08:49:20;7.77;;;5.00;;
6113;SDS011;3087;48.392;10.836;2024-01-16T08:51:46;7.53;;;5.13;;
6113;SDS011;3087;48.392;10.836;2024-01-16T08:54:11;7.27;;;4.53;;
6113;SDS011;3087;48.392;10.836;2024-01-16T08:56:37;7.93;;;6.00;;
6113;SDS011;3087;48.392;10.836;2024-01-16T08:59:03;9.97;;;5.90;;
6113;SDS011;3087;48.392;10.836;2024-01-16T09:01:28;6.87;;;5.20;;
6113;SDS011;3087;48.392;10.836;2024-01-16T09:03:54;8.93;;;5.63;;
6113;SDS011;3087;48.392;10.836;2024-01-16T09:06:19;9.07;;;5.40;;
6113;SDS011;3087;48.392;10.836;2024-01-16T09:08:45;7.27;;;5.30;;
6113;SDS011;3087;48.392;10.836;2024-01-16T09:11:11;8.63;;;5.93;;
6113;SDS011;3087;48.392;10.836;2024-01-16T09:13:37;8.40;;;5.40;;
6113;SDS011;3087;48.392;10.836;2024-01-16T09:16:03;9.87;;;6.10;;
6113;SDS011;3087;48.392;10.836;2024-01-16T09:18:29;7.77;;;5.20;;
6113;SDS011;3087;48.392;10.836;2024-01-16T09:20:55;9.10;;;6.00;;
6113;SDS011;3087;48.392;10.836;2024-01-16T09:23:21;8.47;;;5.30;;
6113;SDS011;3087;48.392;10.836;2024-01-16T09:25:47;7.60;;;5.40;;
6113;SDS011;3087;48.392;10.836;2024-01-16T09:28:13;6.57;;;4.87;;
6113;SDS011;3087;48.392;10.836;2024-01-16T09:30:39;8.43;;;4.67;;
6113;SDS011;3087;48.392;10.836;2024-01-16T09:33:06;8.97;;;4.90;;
6113;SDS011;3087;48.392;10.836;2024-01-16T09:35:32;7.83;;;4.57;;
6113;SDS011;3087;48.392;10.836;2024-01-16T09:37:58;6.77;;;4.40;;
6113;SDS011;3087;48.392;10.836;2024-01-16T09:40:24;7.80;;;5.97;;
6113;SDS011;3087;48.392;10.836;2024-01-16T09:42:51;4.90;;;4.20;;
6113;SDS011;3087;48.392;10.836;2024-01-16T09:45:19;5.20;;;4.17;;
6113;SDS011;3087;48.392;10.836;2024-01-16T09:47:49;8.83;;;5.30;;
6113;SDS011;3087;48.392;10.836;2024-01-16T09:50:16;8.77;;;5.00;;
6113;SDS011;3087;48.392;10.836;2024-01-16T09:52:45;5.90;;;4.00;;
6113;SDS011;3087;48.392;10.836;2024-01-16T09:55:11;7.47;;;3.97;;
6113;SDS011;3087;48.392;10.836;2024-01-16T09:57:39;7.37;;;4.57;;
6113;SDS011;3087;48.392;10.836;2024-01-16T10:00:06;10.63;;;5.47;;
6113;SDS011;3087;48.392;10.836;2024-01-16T10:02:40;13.43;;;7.57;;
6113;SDS011;3087;48.392;10.836;2024-01-16T10:05:10;10.43;;;5.53;;
6113;SDS011;3087;48.392;10.836;2024-01-16T10:07:39;9.63;;;5.70;;
6113;SDS011;3087;48.392;10.836;2024-01-16T10:10:09;9.83;;;5.50;;
6113;SDS011;3087;48.392;10.836;2024-01-16T10:12:38;6.57;;;5.43;;
6113;SDS011;3087;48.392;10.836;2024-01-16T10:15:08;9.70;;;5.77;;
6113;SDS011;3087;48.392;10.836;2024-01-16T10:17:38;9.73;;;5.67;;
6113;SDS011;3087;48.392;10.836;2024-01-16T10:20:04;9.20;;;6.07;;
6113;SDS011;3087;48.392;10.836;2024-01-16T10:22:31;9.20;;;5.70;;
6113;SDS011;3087;48.392;10.836;2024-01-16T10:25:07;8.93;;;5.33;;
6113;SDS011;3087;48.392;10.836;2024-01-16T10:27:34;6.30;;;5.30;;
6113;SDS011;3087;48.392;10.836;2024-01-16T10:30:00;9.07;;;6.17;;
6113;SDS011;3087;48.392;10.836;2024-01-16T10:32:28;11.33;;;6.17;;
6113;SDS011;3087;48.392;10.836;2024-01-16T10:35:01;7.70;;;5.23;;
6113;SDS011;3087;48.392;10.836;2024-01-16T10:37:40;8.43;;;5.30;;
6113;SDS011;3087;48.392;10.836;2024-01-16T10:40:16;7.90;;;5.50;;
6113;SDS011;3087;48.392;10.836;2024-01-16T10:42:43;6.70;;;5.10;;
6113;SDS011;3087;48.392;10.836;2024-01-16T10:45:20;8.63;;;5.13;;
6113;SDS011;3087;48.392;10.836;2024-01-16T10:47:47;9.13;;;5.50;;
6113;SDS011;3087;48.392;10.836;2024-01-16T10:50:13;12.17;;;6.63;;
6113;SDS011;3087;48.392;10.836;2024-01-16T10:52:48;10.67;;;6.13;;
6113;SDS011;3087;48.392;10.836;2024-01-16T10:55:23;8.03;;;5.50;;
6113;SDS011;3087;48.392;10.836;2024-01-16T10:57:49;10.20;;;5.70;;
6113;SDS011;3087;48.392;10.836;2024-01-16T11:00:17;10.00;;;5.87;;
6113;SDS011;3087;48.392;10.836;2024-01-16T11:05:31;8.57;;;5.40;;
6113;SDS011;3087;48.392;10.836;2024-01-16T11:08:00;9.43;;;5.37;;
6113;SDS011;3087;48.392;10.836;2024-01-16T11:10:26;11.73;;;5.40;;
6113;SDS011;3087;48.392;10.836;2024-01-16T11:12:53;12.50;;;5.43;;
6113;SDS011;3087;48.392;10.836;2024-01-16T11:15:20;6.63;;;5.23;;
6113;SDS011;3087;48.392;10.836;2024-01-16T11:17:46;8.43;;;5.10;;
6113;SDS011;3087;48.392;10.836;2024-01-16T11:20:14;8.50;;;5.47;;
6113;SDS011;3087;48.392;10.836;2024-01-16T11:22:42;6.67;;;4.87;;
6113;SDS011;3087;48.392;10.836;2024-01-16T11:27:39;9.90;;;5.40;;
6113;SDS011;3087;48.392;10.836;2024-01-16T11:30:06;7.47;;;4.90;;
6113;SDS011;3087;48.392;10.836;2024-01-16T11:32:34;8.77;;;5.00;;
6113;SDS011;3087;48.392;10.836;2024-01-16T11:35:05;5.57;;;4.80;;
6113;SDS011;3087;48.392;10.836;2024-01-16T11:37:35;5.60;;;4.60;;
6113;SDS011;3087;48.392;10.836;2024-01-16T11:42:45;6.00;;;4.30;;
6113;SDS011;3087;48.392;10.836;2024-01-16T11:50:37;6.80;;;3.90;;
6113;SDS011;3087;48.392;10.836;2024-01-16T11:53:03;6.60;;;3.83;;
6113;SDS011;3087;48.392;10.836;2024-01-16T11:55:32;5.80;;;3.87;;
6113;SDS011;3087;48.392;10.836;2024-01-16T12:00:55;6.97;;;4.30;;
6113;SDS011;3087;48.392;10.836;2024-01-16T12:03:23;5.97;;;4.20;;
6113;SDS011;3087;48.392;10.836;2024-01-16T12:05:57;7.20;;;4.63;;
6113;SDS011;3087;48.392;10.836;2024-01-16T12:08:23;7.87;;;4.83;;
6113;SDS011;3087;48.392;10.836;2024-01-16T12:10:49;7.13;;;4.87;;
6113;SDS011;3087;48.392;10.836;2024-01-16T12:13:15;9.10;;;5.50;;
6113;SDS011;3087;48.392;10.836;2024-01-16T12:15:41;10.10;;;5.87;;
6113;SDS011;3087;48.392;10.836;2024-01-16T12:18:07;7.43;;;5.00;;
6113;SDS011;3087;48.392;10.836;2024-01-16T12:20:34;7.80;;;5.07;;
6113;SDS011;3087;48.392;10.836;2024-01-16T12:25:30;7.17;;;4.80;;
6113;SDS011;3087;48.392;10.836;2024-01-16T12:28:04;7.57;;;4.87;;
6113;SDS011;3087;48.392;10.836;2024-01-16T12:30:31;8.53;;;4.97;;
6113;SDS011;3087;48.392;10.836;2024-01-16T12:35:39;6.37;;;4.93;;
6113;SDS011;3087;48.392;10.836;2024-01-16T12:38:06;7.23;;;5.03;;
6113;SDS011;3087;48.392;10.836;2024-01-16T12:40:35;7.60;;;5.07;;
6113;SDS011;3087;48.392;10.836;2024-01-16T12:43:07;9.83;;;5.10;;
6113;SDS011;3087;48.392;10.836;2024-01-16T12:45:34;10.27;;;5.47;;
6113;SDS011;3087;48.392;10.836;2024-01-16T12:48:00;9.60;;;5.73;;
6113;SDS011;3087;48.392;10.836;2024-01-16T12:50:28;7.90;;;5.77;;
6113;SDS011;3087;48.392;10.836;2024-01-16T12:53:04;7.80;;;5.37;;
6113;SDS011;3087;48.392;10.836;2024-01-16T12:55:30;6.17;;;4.77;;
6113;SDS011;3087;48.392;10.836;2024-01-16T12:58:16;7.33;;;4.87;;
6113;SDS011;3087;48.392;10.836;2024-01-16T13:00:43;7.67;;;4.90;;
6113;SDS011;3087;48.392;10.836;2024-01-16T13:03:17;9.07;;;5.23;;
6113;SDS011;3087;48.392;10.836;2024-01-16T13:05:43;8.67;;;5.43;;
6113;SDS011;3087;48.392;10.836;2024-01-16T13:08:16;6.63;;;4.90;;
6113;SDS011;3087;48.392;10.836;2024-01-16T13:10:42;5.77;;;4.50;;
6113;SDS011;3087;48.392;10.836;2024-01-16T13:13:14;7.30;;;5.10;;
6113;SDS011;3087;48.392;10.836;2024-01-16T13:15:42;6.67;;;4.60;;
6113;SDS011;3087;48.392;10.836;2024-01-16T13:18:20;8.43;;;4.87;;
6113;SDS011;3087;48.392;10.836;2024-01-16T13:20:48;8.07;;;4.90;;
6113;SDS011;3087;48.392;10.836;2024-01-16T13:23:15;8.67;;;5.10;;
6113;SDS011;3087;48.392;10.836;2024-01-16T13:25:45;10.30;;;5.33;;
6113;SDS011;3087;48.392;10.836;2024-01-16T13:28:15;10.03;;;6.27;;
6113;SDS011;3087;48.392;10.836;2024-01-16T13:30:41;8.37;;;5.67;;
6113;SDS011;3087;48.392;10.836;2024-01-16T13:33:08;8.73;;;5.93;;
6113;SDS011;3087;48.392;10.836;2024-01-16T13:35:41;8.77;;;6.30;;
6113;SDS011;3087;48.392;10.836;2024-01-16T13:38:08;21.77;;;13.33;;
6113;SDS011;3087;48.392;10.836;2024-01-16T13:40:34;8.50;;;6.37;;
6113;SDS011;3087;48.392;10.836;2024-01-16T13:43:01;7.20;;;5.73;;
6113;SDS011;3087;48.392;10.836;2024-01-16T13:45:27;7.90;;;5.50;;
6113;SDS011;3087;48.392;10.836;2024-01-16T13:47:53;7.53;;;5.00;;
6113;SDS011;3087;48.392;10.836;2024-01-16T13:50:22;6.47;;;4.90;;
6113;SDS011;3087;48.392;10.836;2024-01-16T13:52:48;7.20;;;5.50;;
6113;SDS011;3087;48.392;10.836;2024-01-16T13:55:13;7.57;;;5.13;;
6113;SDS011;3087;48.392;10.836;2024-01-16T13:57:39;9.20;;;5.90;;
6113;SDS011;3087;48.392;10.836;2024-01-16T14:00:06;7.20;;;5.43;;
6113;SDS011;3087;48.392;10.836;2024-01-16T14:02:38;9.77;;;5.53;;
6113;SDS011;3087;48.392;10.836;2024-01-16T14:05:06;7.63;;;4.93;;
6113;SDS011;3087;48.392;10.836;2024-01-16T14:07:36;8.03;;;4.40;;
6113;SDS011;3087;48.392;10.836;2024-01-16T14:10:05;6.40;;;4.13;;
6113;SDS011;3087;48.392;10.836;2024-01-16T14:12:34;6.83;;;4.53;;
6113;SDS011;3087;48.392;10.836;2024-01-16T14:15:00;6.70;;;4.40;;
6113;SDS011;3087;48.392;10.836;2024-01-16T14:17:31;8.37;;;4.40;;
6113;SDS011;3087;48.392;10.836;2024-01-16T14:19:57;5.60;;;4.00;;
6113;SDS011;3087;48.392;10.836;2024-01-16T14:22:22;6.93;;;4.27;;
6113;SDS011;3087;48.392;10.836;2024-01-16T14:24:48;5.13;;;3.17;;
6113;SDS011;3087;48.392;10.836;2024-01-16T14:27:16;8.73;;;4.27;;
6113;SDS011;3087;48.392;10.836;2024-01-16T14:29:41;6.70;;;4.30;;
6113;SDS011;3087;48.392;10.836;2024-01-16T14:32:07;5.37;;;3.70;;
6113;SDS011;3087;48.392;10.836;2024-01-16T14:34:33;5.20;;;3.73;;
6113;SDS011;3087;48.392;10.836;2024-01-16T14:36:58;4.63;;;3.80;;
6113;SDS011;3087;48.392;10.836;2024-01-16T14:39:24;6.57;;;4.40;;
6113;SDS011;3087;48.392;10.836;2024-01-16T14:41:50;7.00;;;4.20;;
6113;SDS011;3087;48.392;10.836;2024-01-16T14:44:16;4.93;;;3.83;;
6113;SDS011;3087;48.392;10.836;2024-01-16T14:46:42;7.30;;;3.67;;
6113;SDS011;3087;48.392;10.836;2024-01-16T14:49:09;10.53;;;3.67;;
6113;SDS011;3087;48.392;10.836;2024-01-16T14:51:34;11.47;;;5.17;;
6113;SDS011;3087;48.392;10.836;2024-01-16T14:54:00;5.57;;;3.40;;
6113;SDS011;3087;48.392;10.836;2024-01-16T14:56:30;6.37;;;3.90;;
6113;SDS011;3087;48.392;10.836;2024-01-16T14:58:56;6.00;;;3.53;;
6113;SDS011;3087;48.392;10.836;2024-01-16T15:01:22;7.80;;;4.43;;
6113;SDS011;3087;48.392;10.836;2024-01-16T15:03:48;4.43;;;3.40;;
6113;SDS011;3087;48.392;10.836;2024-01-16T15:06:14;6.00;;;4.10;;
6113;SDS011;3087;48.392;10.836;2024-01-16T15:08:42;7.00;;;4.07;;
6113;SDS011;3087;48.392;10.836;2024-01-16T15:11:08;5.77;;;3.87;;
6113;SDS011;3087;48.392;10.836;2024-01-16T15:13:34;5.50;;;3.30;;
6113;SDS011;3087;48.392;10.836;2024-01-16T15:15:59;5.07;;;3.70;;
6113;SDS011;3087;48.392;10.836;2024-01-16T15:18:25;7.47;;;3.53;;
6113;SDS011;3087;48.392;10.836;2024-01-16T15:20:51;5.53;;;3.80;;
6113;SDS011;3087;48.392;10.836;2024-01-16T15:23:17;5.73;;;3.87;;